sensor_id;sensor_type;location;lat;lon;timestamp;temperature;humidity
4874;DHT22;2451;49.970;9.068;2022-11-20T00:00:54;2.40;99.90
4874;DHT22;2451;49.970;9.068;2022-11-20T00:03:20;2.40;99.90
4874;DHT22;2451;49.970;9.068;2022-11-20T00:05:46;2.30;99.90
4874;DHT22;2451;49.970;9.068;2022-11-20T00:08:12;2.40;99.90
4874;DHT22;2451;49.970;9.068;2022-11-20T00:10:38;2.40;99.90
4874;DHT22;2451;49.970;9.068;2022-11-20T00:13:04;2.30;99.90
4874;DHT22;2451;49.970;9.068;2022-11-20T00:15:30;2.30;99.90
4874;DHT22;2451;49.970;9.068;2022-11-20T00:17:56;2.30;99.90
4874;DHT22;2451;49.970;9.068;2022-11-20T00:20:22;2.30;99.90
4874;DHT22;2451;49.970;9.068;2022-11-20T00:22:47;2.20;99.90
4874;DHT22;2451;49.970;9.068;2022-11-20T00:25:13;2.20;99.90
4874;DHT22;2451;49.970;9.068;2022-11-20T00:27:39;2.30;99.90
4874;DHT22;2451;49.970;9.068;2022-11-20T00:30:08;2.30;99.90
4874;DHT22;2451;49.970;9.068;2022-11-20T00:32:34;2.30;99.90
4874;DHT22;2451;49.970;9.068;2022-11-20T00:34:59;2.30;99.90
4874;DHT22;2451;49.970;9.068;2022-11-20T00:37:25;2.20;99.90
4874;DHT22;2451;49.970;9.068;2022-11-20T00:39:51;2.20;99.90
4874;DHT22;2451;49.970;9.068;2022-11-20T00:42:16;2.20;99.90
4874;DHT22;2451;49.970;9.068;2022-11-20T00:44:42;2.20;99.90
4874;DHT22;2451;49.970;9.068;2022-11-20T00:47:07;2.20;99.90
4874;DHT22;2451;49.970;9.068;2022-11-20T00:49:33;2.30;99.90
4874;DHT22;2451;49.970;9.068;2022-11-20T00:51:58;2.30;99.90
4874;DHT22;2451;49.970;9.068;2022-11-20T00:54:24;2.30;99.90
4874;DHT22;2451;49.970;9.068;2022-11-20T00:56:49;2.30;99.90
4874;DHT22;2451;49.970;9.068;2022-11-20T00:59:15;2.30;99.90
4874;DHT22;2451;49.970;9.068;2022-11-20T01:01:40;2.30;99.90
4874;DHT22;2451;49.970;9.068;2022-11-20T01:04:06;2.30;99.90
4874;DHT22;2451;49.970;9.068;2022-11-20T01:06:34;2.30;99.90
4874;DHT22;2451;49.970;9.068;2022-11-20T01:09:09;2.30;99.90
4874;DHT22;2451;49.970;9.068;2022-11-20T01:11:37;2.30;99.90
4874;DHT22;2451;49.970;9.068;2022-11-20T01:14:06;2.30;99.90
4874;DHT22;2451;49.970;9.068;2022-11-20T01:16:35;2.30;99.90
4874;DHT22;2451;49.970;9.068;2022-11-20T01:19:03;2.30;99.90
4874;DHT22;2451;49.970;9.068;2022-11-20T01:21:34;2.30;99.90
4874;DHT22;2451;49.970;9.068;2022-11-20T01:24:00;2.20;99.90
4874;DHT22;2451;49.970;9.068;2022-11-20T01:26:28;2.20;99.90
4874;DHT22;2451;49.970;9.068;2022-11-20T01:28:55;2.20;99.90
4874;DHT22;2451;49.970;9.068;2022-11-20T01:31:31;2.20;99.90
4874;DHT22;2451;49.970;9.068;2022-11-20T01:34:03;2.10;99.90
4874;DHT22;2451;49.970;9.068;2022-11-20T01:36:31;2.10;99.90
4874;DHT22;2451;49.970;9.068;2022-11-20T01:38:59;2.10;99.90
4874;DHT22;2451;49.970;9.068;2022-11-20T01:41:27;2.20;99.90
4874;DHT22;2451;49.970;9.068;2022-11-20T01:44:12;2.20;99.90
4874;DHT22;2451;49.970;9.068;2022-11-20T01:49:52;2.20;99.90
4874;DHT22;2451;49.970;9.068;2022-11-20T01:52:39;2.20;99.90
4874;DHT22;2451;49.970;9.068;2022-11-20T01:55:18;2.20;99.90
4874;DHT22;2451;49.970;9.068;2022-11-20T01:57:45;2.20;99.90
4874;DHT22;2451;49.970;9.068;2022-11-20T02:00:14;2.20;99.90
4874;DHT22;2451;49.970;9.068;2022-11-20T02:02:45;2.20;99.90
4874;DHT22;2451;49.970;9.068;2022-11-20T02:05:32;2.20;99.90
4874;DHT22;2451;49.970;9.068;2022-11-20T02:08:03;2.20;99.90
4874;DHT22;2451;49.970;9.068;2022-11-20T02:10:29;2.20;99.90
4874;DHT22;2451;49.970;9.068;2022-11-20T02:12:55;2.10;99.90
4874;DHT22;2451;49.970;9.068;2022-11-20T02:15:40;2.10;99.90
4874;DHT22;2451;49.970;9.068;2022-11-20T02:18:06;2.10;99.90
4874;DHT22;2451;49.970;9.068;2022-11-20T02:20:32;2.10;99.90
4874;DHT22;2451;49.970;9.068;2022-11-20T02:23:11;2.10;99.90
4874;DHT22;2451;49.970;9.068;2022-11-20T02:25:38;2.10;99.90
4874;DHT22;2451;49.970;9.068;2022-11-20T02:28:05;2.10;99.90
4874;DHT22;2451;49.970;9.068;2022-11-20T02:30:31;2.10;99.90
4874;DHT22;2451;49.970;9.068;2022-11-20T02:32:57;2.10;99.90
4874;DHT22;2451;49.970;9.068;2022-11-20T02:37:52;2.20;99.90
4874;DHT22;2451;49.970;9.068;2022-11-20T02:40:18;2.20;99.90
4874;DHT22;2451;49.970;9.068;2022-11-20T02:42:44;2.10;99.90
4874;DHT22;2451;49.970;9.068;2022-11-20T02:45:10;2.10;99.90
4874;DHT22;2451;49.970;9.068;2022-11-20T02:47:36;2.20;99.90
4874;DHT22;2451;49.970;9.068;2022-11-20T02:50:02;2.10;99.90
4874;DHT22;2451;49.970;9.068;2022-11-20T02:52:28;2.10;99.90
4874;DHT22;2451;49.970;9.068;2022-11-20T02:54:53;2.10;99.90
4874;DHT22;2451;49.970;9.068;2022-11-20T02:57:19;2.10;99.90
4874;DHT22;2451;49.970;9.068;2022-11-20T02:59:44;2.10;99.90
4874;DHT22;2451;49.970;9.068;2022-11-20T03:02:10;2.10;99.90
4874;DHT22;2451;49.970;9.068;2022-11-20T03:04:35;2.00;99.90
4874;DHT22;2451;49.970;9.068;2022-11-20T03:07:01;2.10;99.90
4874;DHT22;2451;49.970;9.068;2022-11-20T03:09:26;2.00;99.90
4874;DHT22;2451;49.970;9.068;2022-11-20T03:11:52;2.00;99.90
4874;DHT22;2451;49.970;9.068;2022-11-20T03:14:18;2.00;99.90
4874;DHT22;2451;49.970;9.068;2022-11-20T03:16:43;2.00;99.90
4874;DHT22;2451;49.970;9.068;2022-11-20T03:19:09;2.10;99.90
4874;DHT22;2451;49.970;9.068;2022-11-20T03:21:35;2.10;99.90
4874;DHT22;2451;49.970;9.068;2022-11-20T03:24:01;2.10;99.90
4874;DHT22;2451;49.970;9.068;2022-11-20T03:26:27;2.10;99.90
4874;DHT22;2451;49.970;9.068;2022-11-20T03:28:58;2.10;99.90
4874;DHT22;2451;49.970;9.068;2022-11-20T03:31:26;2.10;99.90
4874;DHT22;2451;49.970;9.068;2022-11-20T03:33:52;2.10;99.90
4874;DHT22;2451;49.970;9.068;2022-11-20T03:36:19;2.20;99.90
4874;DHT22;2451;49.970;9.068;2022-11-20T03:38:45;2.20;99.90
4874;DHT22;2451;49.970;9.068;2022-11-20T03:41:13;2.30;99.90
4874;DHT22;2451;49.970;9.068;2022-11-20T03:43:39;2.30;99.90
4874;DHT22;2451;49.970;9.068;2022-11-20T03:46:06;2.30;99.90
4874;DHT22;2451;49.970;9.068;2022-11-20T03:48:31;2.30;99.90
4874;DHT22;2451;49.970;9.068;2022-11-20T03:51:16;2.30;99.90
4874;DHT22;2451;49.970;9.068;2022-11-20T03:53:44;2.30;99.90
4874;DHT22;2451;49.970;9.068;2022-11-20T03:56:10;2.30;99.90
4874;DHT22;2451;49.970;9.068;2022-11-20T03:58:37;2.40;99.90
4874;DHT22;2451;49.970;9.068;2022-11-20T04:01:33;2.40;99.90
4874;DHT22;2451;49.970;9.068;2022-11-20T04:04:00;2.40;99.90
4874;DHT22;2451;49.970;9.068;2022-11-20T04:06:33;2.40;99.90
4874;DHT22;2451;49.970;9.068;2022-11-20T04:08:59;2.40;99.90
4874;DHT22;2451;49.970;9.068;2022-11-20T04:11:27;2.40;99.90
4874;DHT22;2451;49.970;9.068;2022-11-20T04:13:59;2.50;99.90
4874;DHT22;2451;49.970;9.068;2022-11-20T04:16:26;2.50;99.90
4874;DHT22;2451;49.970;9.068;2022-11-20T04:18:55;2.50;99.90
4874;DHT22;2451;49.970;9.068;2022-11-20T04:21:21;2.50;99.90
4874;DHT22;2451;49.970;9.068;2022-11-20T04:23:47;2.60;99.90
4874;DHT22;2451;49.970;9.068;2022-11-20T04:26:13;2.60;99.90
4874;DHT22;2451;49.970;9.068;2022-11-20T04:28:39;2.50;99.90
4874;DHT22;2451;49.970;9.068;2022-11-20T04:31:10;2.50;99.90
4874;DHT22;2451;49.970;9.068;2022-11-20T04:33:36;2.50;99.90
4874;DHT22;2451;49.970;9.068;2022-11-20T04:36:10;2.50;99.90
4874;DHT22;2451;49.970;9.068;2022-11-20T04:38:36;2.50;99.90
4874;DHT22;2451;49.970;9.068;2022-11-20T04:41:05;2.50;99.90
4874;DHT22;2451;49.970;9.068;2022-11-20T04:43:31;2.60;99.90
4874;DHT22;2451;49.970;9.068;2022-11-20T04:45:58;2.60;99.90
4874;DHT22;2451;49.970;9.068;2022-11-20T04:48:25;2.50;99.90
4874;DHT22;2451;49.970;9.068;2022-11-20T04:50:51;2.60;99.90
4874;DHT22;2451;49.970;9.068;2022-11-20T04:53:18;2.60;99.90
4874;DHT22;2451;49.970;9.068;2022-11-20T04:55:44;2.60;99.90
4874;DHT22;2451;49.970;9.068;2022-11-20T04:58:09;2.60;99.90
4874;DHT22;2451;49.970;9.068;2022-11-20T05:00:35;2.60;99.90
4874;DHT22;2451;49.970;9.068;2022-11-20T05:03:01;2.60;99.90
4874;DHT22;2451;49.970;9.068;2022-11-20T05:05:26;2.60;99.90
4874;DHT22;2451;49.970;9.068;2022-11-20T05:07:52;2.60;99.90
4874;DHT22;2451;49.970;9.068;2022-11-20T05:10:17;2.60;99.90
4874;DHT22;2451;49.970;9.068;2022-11-20T05:12:43;2.60;99.90
4874;DHT22;2451;49.970;9.068;2022-11-20T05:15:11;2.60;99.90
4874;DHT22;2451;49.970;9.068;2022-11-20T05:17:37;2.60;99.90
4874;DHT22;2451;49.970;9.068;2022-11-20T05:20:03;2.60;99.90
4874;DHT22;2451;49.970;9.068;2022-11-20T05:22:28;2.60;99.90
4874;DHT22;2451;49.970;9.068;2022-11-20T05:24:54;2.60;99.90
4874;DHT22;2451;49.970;9.068;2022-11-20T05:27:19;2.60;99.90
4874;DHT22;2451;49.970;9.068;2022-11-20T05:29:45;2.60;99.90
4874;DHT22;2451;49.970;9.068;2022-11-20T05:32:10;2.60;99.90
4874;DHT22;2451;49.970;9.068;2022-11-20T05:34:36;2.70;99.90
4874;DHT22;2451;49.970;9.068;2022-11-20T05:37:02;2.70;99.90
4874;DHT22;2451;49.970;9.068;2022-11-20T05:39:31;2.70;99.90
4874;DHT22;2451;49.970;9.068;2022-11-20T05:41:57;2.70;99.90
4874;DHT22;2451;49.970;9.068;2022-11-20T05:44:41;2.70;99.90
4874;DHT22;2451;49.970;9.068;2022-11-20T05:47:06;2.80;99.90
4874;DHT22;2451;49.970;9.068;2022-11-20T05:49:32;2.80;99.90
4874;DHT22;2451;49.970;9.068;2022-11-20T05:51:58;2.80;99.90
4874;DHT22;2451;49.970;9.068;2022-11-20T05:54:23;2.90;99.90
4874;DHT22;2451;49.970;9.068;2022-11-20T05:56:49;2.90;99.90
4874;DHT22;2451;49.970;9.068;2022-11-20T05:59:14;2.90;99.90
4874;DHT22;2451;49.970;9.068;2022-11-20T06:01:40;2.90;99.90
4874;DHT22;2451;49.970;9.068;2022-11-20T06:04:06;2.90;99.90
4874;DHT22;2451;49.970;9.068;2022-11-20T06:06:31;2.90;99.90
4874;DHT22;2451;49.970;9.068;2022-11-20T06:08:57;2.80;99.90
4874;DHT22;2451;49.970;9.068;2022-11-20T06:11:24;2.90;99.90
4874;DHT22;2451;49.970;9.068;2022-11-20T06:13:50;2.90;99.90
4874;DHT22;2451;49.970;9.068;2022-11-20T06:16:17;2.90;99.90
4874;DHT22;2451;49.970;9.068;2022-11-20T06:18:44;2.90;99.90
4874;DHT22;2451;49.970;9.068;2022-11-20T06:21:14;2.90;99.90
4874;DHT22;2451;49.970;9.068;2022-11-20T06:23:40;3.00;99.90
4874;DHT22;2451;49.970;9.068;2022-11-20T06:26:11;3.00;99.90
4874;DHT22;2451;49.970;9.068;2022-11-20T06:28:36;3.00;99.90
4874;DHT22;2451;49.970;9.068;2022-11-20T06:31:03;3.00;99.90
4874;DHT22;2451;49.970;9.068;2022-11-20T06:33:29;3.00;99.90
4874;DHT22;2451;49.970;9.068;2022-11-20T06:35:59;3.10;99.90
4874;DHT22;2451;49.970;9.068;2022-11-20T06:38:27;3.10;99.90
4874;DHT22;2451;49.970;9.068;2022-11-20T06:40:53;3.20;99.90
4874;DHT22;2451;49.970;9.068;2022-11-20T06:43:19;3.20;99.90
4874;DHT22;2451;49.970;9.068;2022-11-20T06:45:44;3.10;99.90
4874;DHT22;2451;49.970;9.068;2022-11-20T06:48:10;3.10;99.90
4874;DHT22;2451;49.970;9.068;2022-11-20T06:50:38;3.10;99.90
4874;DHT22;2451;49.970;9.068;2022-11-20T06:53:04;3.20;99.90
4874;DHT22;2451;49.970;9.068;2022-11-20T06:55:31;3.20;99.90
4874;DHT22;2451;49.970;9.068;2022-11-20T06:57:57;3.20;99.90
4874;DHT22;2451;49.970;9.068;2022-11-20T07:00:23;3.20;99.90
4874;DHT22;2451;49.970;9.068;2022-11-20T07:02:49;3.20;99.90
4874;DHT22;2451;49.970;9.068;2022-11-20T07:05:15;3.20;99.90
4874;DHT22;2451;49.970;9.068;2022-11-20T07:07:40;3.20;99.90
4874;DHT22;2451;49.970;9.068;2022-11-20T07:10:06;3.20;99.90
4874;DHT22;2451;49.970;9.068;2022-11-20T07:12:32;3.10;99.90
4874;DHT22;2451;49.970;9.068;2022-11-20T07:14:57;3.10;99.90
4874;DHT22;2451;49.970;9.068;2022-11-20T07:17:23;3.20;99.90
4874;DHT22;2451;49.970;9.068;2022-11-20T07:19:49;3.20;99.90
4874;DHT22;2451;49.970;9.068;2022-11-20T07:22:14;3.20;99.90
4874;DHT22;2451;49.970;9.068;2022-11-20T07:24:40;3.20;99.90
4874;DHT22;2451;49.970;9.068;2022-11-20T07:27:05;3.20;99.90
4874;DHT22;2451;49.970;9.068;2022-11-20T07:29:31;3.20;99.90
4874;DHT22;2451;49.970;9.068;2022-11-20T07:31:56;3.20;99.90
4874;DHT22;2451;49.970;9.068;2022-11-20T07:34:22;3.20;99.90
4874;DHT22;2451;49.970;9.068;2022-11-20T07:36:48;3.20;99.90
4874;DHT22;2451;49.970;9.068;2022-11-20T07:39:13;3.20;99.90
4874;DHT22;2451;49.970;9.068;2022-11-20T07:41:39;3.30;99.90
4874;DHT22;2451;49.970;9.068;2022-11-20T07:44:05;3.20;99.90
4874;DHT22;2451;49.970;9.068;2022-11-20T07:46:30;3.20;99.90
4874;DHT22;2451;49.970;9.068;2022-11-20T07:48:56;3.20;99.90
4874;DHT22;2451;49.970;9.068;2022-11-20T07:51:22;3.20;99.90
4874;DHT22;2451;49.970;9.068;2022-11-20T07:53:50;3.20;99.90
4874;DHT22;2451;49.970;9.068;2022-11-20T07:56:15;3.20;99.90
4874;DHT22;2451;49.970;9.068;2022-11-20T07:58:41;3.20;99.90
4874;DHT22;2451;49.970;9.068;2022-11-20T08:01:07;3.20;99.90
4874;DHT22;2451;49.970;9.068;2022-11-20T08:03:34;3.20;99.90
4874;DHT22;2451;49.970;9.068;2022-11-20T08:06:01;3.30;99.90
4874;DHT22;2451;49.970;9.068;2022-11-20T08:08:27;3.30;99.90
4874;DHT22;2451;49.970;9.068;2022-11-20T08:10:54;3.30;99.90
4874;DHT22;2451;49.970;9.068;2022-11-20T08:13:39;3.40;99.90
4874;DHT22;2451;49.970;9.068;2022-11-20T08:16:23;3.40;99.90
4874;DHT22;2451;49.970;9.068;2022-11-20T08:18:49;3.40;99.90
4874;DHT22;2451;49.970;9.068;2022-11-20T08:21:15;3.40;99.90
4874;DHT22;2451;49.970;9.068;2022-11-20T08:23:40;3.50;99.90
4874;DHT22;2451;49.970;9.068;2022-11-20T08:26:06;3.50;99.90
4874;DHT22;2451;49.970;9.068;2022-11-20T08:28:31;3.50;99.90
4874;DHT22;2451;49.970;9.068;2022-11-20T08:31:01;3.60;99.90
4874;DHT22;2451;49.970;9.068;2022-11-20T08:33:26;3.50;99.90
4874;DHT22;2451;49.970;9.068;2022-11-20T08:35:52;3.50;99.90
4874;DHT22;2451;49.970;9.068;2022-11-20T08:38:17;3.40;99.90
4874;DHT22;2451;49.970;9.068;2022-11-20T08:40:43;3.40;99.90
4874;DHT22;2451;49.970;9.068;2022-11-20T08:43:31;3.40;99.90
4874;DHT22;2451;49.970;9.068;2022-11-20T08:45:57;3.40;99.90
4874;DHT22;2451;49.970;9.068;2022-11-20T08:48:23;3.40;99.90
4874;DHT22;2451;49.970;9.068;2022-11-20T08:50:48;3.40;99.90
4874;DHT22;2451;49.970;9.068;2022-11-20T08:53:14;3.50;99.90
4874;DHT22;2451;49.970;9.068;2022-11-20T08:55:39;3.50;99.90
4874;DHT22;2451;49.970;9.068;2022-11-20T08:58:08;3.50;99.90
4874;DHT22;2451;49.970;9.068;2022-11-20T09:00:34;3.60;99.90
4874;DHT22;2451;49.970;9.068;2022-11-20T09:03:00;3.60;99.90
4874;DHT22;2451;49.970;9.068;2022-11-20T09:05:26;3.60;99.90
4874;DHT22;2451;49.970;9.068;2022-11-20T09:07:55;3.60;99.90
4874;DHT22;2451;49.970;9.068;2022-11-20T09:10:21;3.70;99.90
4874;DHT22;2451;49.970;9.068;2022-11-20T09:12:48;3.80;99.90
4874;DHT22;2451;49.970;9.068;2022-11-20T09:15:14;3.90;99.90
4874;DHT22;2451;49.970;9.068;2022-11-20T09:17:40;3.80;99.90
4874;DHT22;2451;49.970;9.068;2022-11-20T09:20:05;3.90;99.90
4874;DHT22;2451;49.970;9.068;2022-11-20T09:22:31;3.90;99.90
4874;DHT22;2451;49.970;9.068;2022-11-20T09:24:56;3.90;99.90
4874;DHT22;2451;49.970;9.068;2022-11-20T09:27:22;4.00;99.90
4874;DHT22;2451;49.970;9.068;2022-11-20T09:29:48;4.10;99.90
4874;DHT22;2451;49.970;9.068;2022-11-20T09:32:13;4.10;99.90
4874;DHT22;2451;49.970;9.068;2022-11-20T09:34:39;4.10;99.90
4874;DHT22;2451;49.970;9.068;2022-11-20T09:37:05;4.20;99.90
4874;DHT22;2451;49.970;9.068;2022-11-20T09:39:30;4.30;99.90
4874;DHT22;2451;49.970;9.068;2022-11-20T09:47:13;4.40;99.90
4874;DHT22;2451;49.970;9.068;2022-11-20T09:52:32;4.60;99.90
4874;DHT22;2451;49.970;9.068;2022-11-20T09:55:03;4.60;99.90
4874;DHT22;2451;49.970;9.068;2022-11-20T09:57:36;4.70;99.90
4874;DHT22;2451;49.970;9.068;2022-11-20T10:00:04;4.70;99.90
4874;DHT22;2451;49.970;9.068;2022-11-20T10:05:19;4.90;99.90
4874;DHT22;2451;49.970;9.068;2022-11-20T10:10:33;4.90;99.90
4874;DHT22;2451;49.970;9.068;2022-11-20T10:18:54;4.80;99.90
4874;DHT22;2451;49.970;9.068;2022-11-20T10:24:06;4.80;99.90
4874;DHT22;2451;49.970;9.068;2022-11-20T10:26:51;4.70;99.90
4874;DHT22;2451;49.970;9.068;2022-11-20T10:29:29;4.70;99.90
4874;DHT22;2451;49.970;9.068;2022-11-20T10:32:20;4.70;99.90
4874;DHT22;2451;49.970;9.068;2022-11-20T10:37:26;4.80;99.90
4874;DHT22;2451;49.970;9.068;2022-11-20T10:40:21;4.70;99.90
4874;DHT22;2451;49.970;9.068;2022-11-20T10:42:55;4.70;99.90
4874;DHT22;2451;49.970;9.068;2022-11-20T10:50:32;4.70;99.90
4874;DHT22;2451;49.970;9.068;2022-11-20T10:53:28;4.70;99.90
4874;DHT22;2451;49.970;9.068;2022-11-20T10:56:02;4.70;99.90
4874;DHT22;2451;49.970;9.068;2022-11-20T11:01:15;4.70;99.90
4874;DHT22;2451;49.970;9.068;2022-11-20T11:03:41;4.70;99.90
4874;DHT22;2451;49.970;9.068;2022-11-20T11:08:53;4.80;99.90
4874;DHT22;2451;49.970;9.068;2022-11-20T11:11:24;4.80;99.90
4874;DHT22;2451;49.970;9.068;2022-11-20T11:13:51;4.80;99.90
4874;DHT22;2451;49.970;9.068;2022-11-20T11:16:25;4.80;99.90
4874;DHT22;2451;49.970;9.068;2022-11-20T11:19:02;4.80;99.90
4874;DHT22;2451;49.970;9.068;2022-11-20T11:21:28;4.80;99.90
4874;DHT22;2451;49.970;9.068;2022-11-20T11:24:02;4.90;99.90
4874;DHT22;2451;49.970;9.068;2022-11-20T11:26:29;4.80;99.90
4874;DHT22;2451;49.970;9.068;2022-11-20T11:29:02;4.90;99.90
4874;DHT22;2451;49.970;9.068;2022-11-20T11:31:33;4.90;99.90
4874;DHT22;2451;49.970;9.068;2022-11-20T11:34:12;4.80;99.90
4874;DHT22;2451;49.970;9.068;2022-11-20T11:36:38;4.90;99.90
4874;DHT22;2451;49.970;9.068;2022-11-20T11:39:06;4.80;99.90
4874;DHT22;2451;49.970;9.068;2022-11-20T11:41:36;4.80;99.90
4874;DHT22;2451;49.970;9.068;2022-11-20T11:44:20;4.80;99.90
4874;DHT22;2451;49.970;9.068;2022-11-20T11:47:11;4.90;99.90
4874;DHT22;2451;49.970;9.068;2022-11-20T11:49:43;5.00;99.90
4874;DHT22;2451;49.970;9.068;2022-11-20T11:52:17;4.90;99.90
4874;DHT22;2451;49.970;9.068;2022-11-20T11:54:49;5.00;99.90
4874;DHT22;2451;49.970;9.068;2022-11-20T12:00:12;5.10;99.90
4874;DHT22;2451;49.970;9.068;2022-11-20T12:05:49;5.20;99.90
4874;DHT22;2451;49.970;9.068;2022-11-20T12:08:24;5.20;99.90
4874;DHT22;2451;49.970;9.068;2022-11-20T12:13:54;5.10;99.90
4874;DHT22;2451;49.970;9.068;2022-11-20T12:16:22;5.10;99.90
4874;DHT22;2451;49.970;9.068;2022-11-20T12:18:50;5.10;99.90
4874;DHT22;2451;49.970;9.068;2022-11-20T12:32:22;5.10;99.90
4874;DHT22;2451;49.970;9.068;2022-11-20T12:46:37;5.40;99.90
4874;DHT22;2451;49.970;9.068;2022-11-20T12:49:25;5.40;99.90
4874;DHT22;2451;49.970;9.068;2022-11-20T12:57:36;5.40;99.90
4874;DHT22;2451;49.970;9.068;2022-11-20T13:08:21;5.40;99.90
4874;DHT22;2451;49.970;9.068;2022-11-20T13:11:10;5.50;99.90
4874;DHT22;2451;49.970;9.068;2022-11-20T13:16:49;5.50;99.90
4874;DHT22;2451;49.970;9.068;2022-11-20T13:19:17;5.50;99.90
4874;DHT22;2451;49.970;9.068;2022-11-20T13:21:46;5.50;99.90
4874;DHT22;2451;49.970;9.068;2022-11-20T13:29:26;5.50;99.90
4874;DHT22;2451;49.970;9.068;2022-11-20T13:32:13;5.50;99.90
4874;DHT22;2451;49.970;9.068;2022-11-20T13:34:39;5.50;99.90
4874;DHT22;2451;49.970;9.068;2022-11-20T13:37:32;5.60;99.90
4874;DHT22;2451;49.970;9.068;2022-11-20T13:42:43;5.60;99.90
4874;DHT22;2451;49.970;9.068;2022-11-20T13:45:21;5.60;99.90
4874;DHT22;2451;49.970;9.068;2022-11-20T13:47:49;5.70;99.90
4874;DHT22;2451;49.970;9.068;2022-11-20T13:50:15;5.70;99.90
4874;DHT22;2451;49.970;9.068;2022-11-20T13:52:58;5.70;99.90
4874;DHT22;2451;49.970;9.068;2022-11-20T13:55:31;5.70;99.90
4874;DHT22;2451;49.970;9.068;2022-11-20T13:58:19;5.70;99.90
4874;DHT22;2451;49.970;9.068;2022-11-20T14:01:10;5.60;99.90
4874;DHT22;2451;49.970;9.068;2022-11-20T14:03:36;5.60;99.90
4874;DHT22;2451;49.970;9.068;2022-11-20T14:08:47;5.60;99.90
4874;DHT22;2451;49.970;9.068;2022-11-20T14:11:16;5.60;99.90
4874;DHT22;2451;49.970;9.068;2022-11-20T14:14:03;5.50;99.90
4874;DHT22;2451;49.970;9.068;2022-11-20T14:16:31;5.50;99.90
4874;DHT22;2451;49.970;9.068;2022-11-20T14:19:11;5.40;99.90
4874;DHT22;2451;49.970;9.068;2022-11-20T14:21:42;5.30;99.90
4874;DHT22;2451;49.970;9.068;2022-11-20T14:24:11;5.30;99.90
4874;DHT22;2451;49.970;9.068;2022-11-20T14:26:41;5.30;99.90
4874;DHT22;2451;49.970;9.068;2022-11-20T14:29:14;5.30;99.90
4874;DHT22;2451;49.970;9.068;2022-11-20T14:31:42;5.30;99.90
4874;DHT22;2451;49.970;9.068;2022-11-20T14:34:20;5.30;99.90
4874;DHT22;2451;49.970;9.068;2022-11-20T14:36:47;5.30;99.90
4874;DHT22;2451;49.970;9.068;2022-11-20T14:39:48;5.30;99.90
4874;DHT22;2451;49.970;9.068;2022-11-20T14:42:17;5.20;99.90
4874;DHT22;2451;49.970;9.068;2022-11-20T14:44:43;5.20;99.90
4874;DHT22;2451;49.970;9.068;2022-11-20T14:47:11;5.20;99.90
4874;DHT22;2451;49.970;9.068;2022-11-20T14:49:38;5.20;99.90
4874;DHT22;2451;49.970;9.068;2022-11-20T14:52:24;5.20;99.90
4874;DHT22;2451;49.970;9.068;2022-11-20T14:54:58;5.20;99.90
4874;DHT22;2451;49.970;9.068;2022-11-20T15:00:05;5.10;99.90
4874;DHT22;2451;49.970;9.068;2022-11-20T15:02:32;5.10;99.90
4874;DHT22;2451;49.970;9.068;2022-11-20T15:04:59;5.10;99.90
4874;DHT22;2451;49.970;9.068;2022-11-20T15:07:32;5.10;99.90
4874;DHT22;2451;49.970;9.068;2022-11-20T15:10:10;5.00;99.90
4874;DHT22;2451;49.970;9.068;2022-11-20T15:12:40;5.00;99.90
4874;DHT22;2451;49.970;9.068;2022-11-20T15:15:12;5.00;99.90
4874;DHT22;2451;49.970;9.068;2022-11-20T15:17:40;5.00;99.90
4874;DHT22;2451;49.970;9.068;2022-11-20T15:20:14;5.00;99.90
4874;DHT22;2451;49.970;9.068;2022-11-20T15:22:41;5.00;99.90
4874;DHT22;2451;49.970;9.068;2022-11-20T15:25:14;5.00;99.90
4874;DHT22;2451;49.970;9.068;2022-11-20T15:27:41;5.00;99.90
4874;DHT22;2451;49.970;9.068;2022-11-20T15:30:18;5.00;99.90
4874;DHT22;2451;49.970;9.068;2022-11-20T15:32:47;5.00;99.90
4874;DHT22;2451;49.970;9.068;2022-11-20T15:35:14;5.00;99.90
4874;DHT22;2451;49.970;9.068;2022-11-20T15:37:40;5.00;99.90
4874;DHT22;2451;49.970;9.068;2022-11-20T15:40:07;5.00;99.90
4874;DHT22;2451;49.970;9.068;2022-11-20T15:42:33;4.90;99.90
4874;DHT22;2451;49.970;9.068;2022-11-20T15:44:59;5.00;99.90
4874;DHT22;2451;49.970;9.068;2022-11-20T15:47:28;4.90;99.90
4874;DHT22;2451;49.970;9.068;2022-11-20T15:49:55;4.90;99.90
4874;DHT22;2451;49.970;9.068;2022-11-20T15:52:20;4.90;99.90
4874;DHT22;2451;49.970;9.068;2022-11-20T15:54:46;4.90;99.90
4874;DHT22;2451;49.970;9.068;2022-11-20T15:57:12;4.90;99.90
4874;DHT22;2451;49.970;9.068;2022-11-20T15:59:38;4.90;99.90
4874;DHT22;2451;49.970;9.068;2022-11-20T16:02:10;4.90;99.90
4874;DHT22;2451;49.970;9.068;2022-11-20T16:04:36;4.90;99.90
4874;DHT22;2451;49.970;9.068;2022-11-20T16:07:01;4.90;99.90
4874;DHT22;2451;49.970;9.068;2022-11-20T16:09:27;4.90;99.90
4874;DHT22;2451;49.970;9.068;2022-11-20T16:11:52;4.90;99.90
4874;DHT22;2451;49.970;9.068;2022-11-20T16:14:19;4.90;99.90
4874;DHT22;2451;49.970;9.068;2022-11-20T16:17:03;5.00;99.90
4874;DHT22;2451;49.970;9.068;2022-11-20T16:19:28;5.00;99.90
4874;DHT22;2451;49.970;9.068;2022-11-20T16:21:54;5.00;99.90
4874;DHT22;2451;49.970;9.068;2022-11-20T16:24:20;5.00;99.90
4874;DHT22;2451;49.970;9.068;2022-11-20T16:26:45;5.00;99.90
4874;DHT22;2451;49.970;9.068;2022-11-20T16:29:11;4.90;99.90
4874;DHT22;2451;49.970;9.068;2022-11-20T16:31:37;4.90;99.90
4874;DHT22;2451;49.970;9.068;2022-11-20T16:34:05;4.90;99.90
4874;DHT22;2451;49.970;9.068;2022-11-20T16:36:31;4.90;99.90
4874;DHT22;2451;49.970;9.068;2022-11-20T16:38:59;4.90;99.90
4874;DHT22;2451;49.970;9.068;2022-11-20T16:41:26;4.90;99.90
4874;DHT22;2451;49.970;9.068;2022-11-20T16:43:57;4.90;99.90
4874;DHT22;2451;49.970;9.068;2022-11-20T16:46:28;4.90;99.90
4874;DHT22;2451;49.970;9.068;2022-11-20T16:48:59;4.90;99.90
4874;DHT22;2451;49.970;9.068;2022-11-20T16:51:27;4.90;99.90
4874;DHT22;2451;49.970;9.068;2022-11-20T16:53:54;4.90;99.90
4874;DHT22;2451;49.970;9.068;2022-11-20T16:56:25;5.00;99.90
4874;DHT22;2451;49.970;9.068;2022-11-20T16:58:53;4.90;99.90
4874;DHT22;2451;49.970;9.068;2022-11-20T17:01:21;4.90;99.90
4874;DHT22;2451;49.970;9.068;2022-11-20T17:03:59;5.00;99.90
4874;DHT22;2451;49.970;9.068;2022-11-20T17:06:27;5.00;99.90
4874;DHT22;2451;49.970;9.068;2022-11-20T17:08:54;5.00;99.90
4874;DHT22;2451;49.970;9.068;2022-11-20T17:11:20;5.00;99.90
4874;DHT22;2451;49.970;9.068;2022-11-20T17:13:46;5.00;99.90
4874;DHT22;2451;49.970;9.068;2022-11-20T17:16:15;5.00;99.90
4874;DHT22;2451;49.970;9.068;2022-11-20T17:18:41;5.00;99.90
4874;DHT22;2451;49.970;9.068;2022-11-20T17:21:08;5.00;99.90
4874;DHT22;2451;49.970;9.068;2022-11-20T17:23:39;5.00;99.90
4874;DHT22;2451;49.970;9.068;2022-11-20T17:26:14;5.00;99.90
4874;DHT22;2451;49.970;9.068;2022-11-20T17:28:42;5.10;99.90
4874;DHT22;2451;49.970;9.068;2022-11-20T17:31:10;5.10;99.90
4874;DHT22;2451;49.970;9.068;2022-11-20T17:33:39;5.10;99.90
4874;DHT22;2451;49.970;9.068;2022-11-20T17:36:06;5.10;99.90
4874;DHT22;2451;49.970;9.068;2022-11-20T17:38:33;5.20;99.90
4874;DHT22;2451;49.970;9.068;2022-11-20T17:41:03;5.20;99.90
4874;DHT22;2451;49.970;9.068;2022-11-20T17:43:30;5.20;99.90
4874;DHT22;2451;49.970;9.068;2022-11-20T17:45:56;5.30;99.90
4874;DHT22;2451;49.970;9.068;2022-11-20T17:48:22;5.30;99.90
4874;DHT22;2451;49.970;9.068;2022-11-20T17:50:48;5.30;99.90
4874;DHT22;2451;49.970;9.068;2022-11-20T17:53:13;5.30;99.90
4874;DHT22;2451;49.970;9.068;2022-11-20T17:55:39;5.30;99.90
4874;DHT22;2451;49.970;9.068;2022-11-20T17:58:36;5.30;99.90
4874;DHT22;2451;49.970;9.068;2022-11-20T18:01:05;5.30;99.90
4874;DHT22;2451;49.970;9.068;2022-11-20T18:03:31;5.30;99.90
4874;DHT22;2451;49.970;9.068;2022-11-20T18:05:57;5.30;99.90
4874;DHT22;2451;49.970;9.068;2022-11-20T18:08:22;5.30;99.90
4874;DHT22;2451;49.970;9.068;2022-11-20T18:10:48;5.30;99.90